KOKK/OKK METAR and TAF weather

Enter ICAO airport designator
Station Type Date Time Source
KOKK METAR 2020/06/05 09:56 UTC NOAA

KOKK 050956Z AUTO 26003KT 10SM CLR 19/19 A2988 RMK AO2 SLP114 T01890189


Station Type Date Time Source
KOKK Decoded METAR 2020/06/05 09:56 UTC NOAA

Kokomo, Kokomo Municipal Airport, IN, United States (KOKK) 40-32N 086-04W
Jun 05, 2020 - 05:56 AM EDT / 2020.06.05 0956 UTC
Wind: from the W (260 degrees) at 3 MPH (3 KT):0
Visibility: 10 mile(s):0
Sky conditions: clear
Temperature: 66.0 F (18.9 C)
Dew Point: 66.0 F (18.9 C)
Relative Humidity: 100%
Pressure (altimeter): 29.88 in. Hg (1011 hPa)
ob: KOKK 050956Z AUTO 26003KT 10SM CLR 19/19 A2988 RMK AO2 SLP114 T01890189
cycle: 10

Station Type Date Time Source
KOKK TAF UTC NOAA

Error!

Example: see airport list